Time;durP1;ratioP1;P1;durP2;ratioP2;P2;SDS_P1;SDS_P2;PMS_P1;PMS_P2;Temp;Humidity;BMP_temperature;BMP_pressure;BME280_temperature;BME280_humidity;BME280_pressure;Samples;Min_cycle;Max_cycle;Signal;HPM_P1;HPM_P2
2023/08/17 00:00:24;;;;;;;2.97;1.55;;;;;;;;;;5027781;28;20401;-70
2023/08/17 00:02:53;;;;;;;5.82;1.50;;;;;;;;;;5026678;28;20041;-70
2023/08/17 00:05:20;;;;;;;3.13;1.73;;;;;;;;;;5029046;28;20053;-70
2023/08/17 00:07:48;;;;;;;3.42;1.70;;;;;;;;;;5030251;28;20049;-70
2023/08/17 00:10:15;;;;;;;4.22;1.60;;;;;;;;;;5027573;28;20058;-70
2023/08/17 00:12:42;;;;;;;4.70;1.60;;;;;;;;;;5027314;28;20049;-70
2023/08/17 00:15:10;;;;;;;5.88;2.08;;;;;;;;;;5028209;28;20056;-70
2023/08/17 00:17:37;;;;;;;5.05;1.90;;;;;;;;;;5028329;28;20052;-70
2023/08/17 00:20:06;;;;;;;3.33;1.55;;;;;;;;;;5028622;28;20495;-71
2023/08/17 00:22:33;;;;;;;4.03;1.60;;;;;;;;;;5027014;28;20053;-70
2023/08/17 00:25:01;;;;;;;4.60;1.63;;;;;;;;;;5028284;28;20053;-70
2023/08/17 00:27:28;;;;;;;6.78;1.70;;;;;;;;;;5026766;28;20483;-70
2023/08/17 00:29:55;;;;;;;3.90;1.70;;;;;;;;;;5026066;28;20060;-70
2023/08/17 00:32:23;;;;;;;4.47;1.70;;;;;;;;;;5029485;28;20373;-70
2023/08/17 00:34:50;;;;;;;3.15;1.55;;;;;;;;;;5030374;28;20053;-70
2023/08/17 00:37:19;;;;;;;2.75;1.40;;;;;;;;;;5029252;28;20041;-70
2023/08/17 00:39:46;;;;;;;4.40;1.38;;;;;;;;;;5029736;28;20053;-70
2023/08/17 00:42:13;;;;;;;4.07;1.42;;;;;;;;;;5029816;28;20353;-71
2023/08/17 00:44:40;;;;;;;2.78;1.20;;;;;;;;;;5025315;28;20064;-70
2023/08/17 00:47:08;;;;;;;3.90;1.60;;;;;;;;;;5023928;28;20055;-70
2023/08/17 00:49:36;;;;;;;3.00;1.40;;;;;;;;;;5028051;28;20045;-71
2023/08/17 00:52:04;;;;;;;3.47;1.40;;;;;;;;;;5028581;28;20046;-70
2023/08/17 00:54:33;;;;;;;3.20;1.50;;;;;;;;;;5029195;28;20052;-70
2023/08/17 00:57:00;;;;;;;4.70;1.58;;;;;;;;;;5025876;28;20556;-71
2023/08/17 00:59:28;;;;;;;4.72;2.05;;;;;;;;;;5027140;28;20054;-70
2023/08/17 01:01:55;;;;;;;5.47;1.70;;;;;;;;;;5027595;28;20087;-70
2023/08/17 01:04:22;;;;;;;4.93;1.90;;;;;;;;;;5028593;28;20042;-70
2023/08/17 01:06:49;;;;;;;3.72;1.80;;;;;;;;;;5029724;28;20056;-70
2023/08/17 01:09:17;;;;;;;2.03;1.30;;;;;;;;;;5026621;28;20046;-70
2023/08/17 01:11:52;;;;;;;3.88;1.60;;;;;;;;;;5028968;28;20060;-70
2023/08/17 01:14:21;;;;;;;3.33;1.50;;;;;;;;;;5028970;28;20045;-70
2023/08/17 01:16:50;;;;;;;4.75;1.38;;;;;;;;;;5029818;28;20045;-70
2023/08/17 01:19:25;;;;;;;1.83;1.05;;;;;;;;;;5027142;28;20037;-70
2023/08/17 01:21:52;;;;;;;2.88;1.20;;;;;;;;;;5024365;28;20060;-70
2023/08/17 01:24:21;;;;;;;2.67;1.35;;;;;;;;;;5028912;28;20045;-70
2023/08/17 01:26:48;;;;;;;3.95;1.40;;;;;;;;;;5027740;28;20050;-70
2023/08/17 01:29:15;;;;;;;5.30;1.40;;;;;;;;;;5024829;28;20041;-70
2023/08/17 01:31:47;;;;;;;3.88;1.40;;;;;;;;;;5025219;28;20041;-70
2023/08/17 01:34:18;;;;;;;3.05;1.30;;;;;;;;;;5029398;28;20041;-71
2023/08/17 01:36:48;;;;;;;4.00;1.40;;;;;;;;;;5028256;28;20068;-70
2023/08/17 01:39:17;;;;;;;2.50;1.30;;;;;;;;;;5022258;28;20053;-71
2023/08/17 01:41:46;;;;;;;2.97;1.30;;;;;;;;;;5026696;28;20041;-71
2023/08/17 01:44:13;;;;;;;5.00;1.60;;;;;;;;;;5022730;28;20064;-70
2023/08/17 01:46:41;;;;;;;2.70;1.50;;;;;;;;;;5026986;28;20049;-70
2023/08/17 01:49:09;;;;;;;4.28;1.50;;;;;;;;;;5028123;28;20049;-70
2023/08/17 01:51:36;;;;;;;5.15;1.50;;;;;;;;;;5028258;28;20049;-71
2023/08/17 01:54:03;;;;;;;3.20;1.52;;;;;;;;;;5027304;28;20443;-70
2023/08/17 01:56:30;;;;;;;5.32;1.60;;;;;;;;;;5029299;28;20058;-70
2023/08/17 01:58:59;;;;;;;5.47;1.83;;;;;;;;;;5031703;28;20076;-70
2023/08/17 02:01:26;;;;;;;3.22;1.80;;;;;;;;;;5032196;28;20045;-70
2023/08/17 02:03:54;;;;;;;2.47;1.70;;;;;;;;;;5032339;28;20045;-70
2023/08/17 02:06:21;;;;;;;4.70;2.10;;;;;;;;;;5031650;28;20042;-70
2023/08/17 02:08:48;;;;;;;5.82;2.20;;;;;;;;;;5026340;28;20049;-70
2023/08/17 02:11:15;;;;;;;5.90;2.13;;;;;;;;;;5028796;28;20038;-70
2023/08/17 02:13:42;;;;;;;5.57;2.40;;;;;;;;;;5025934;28;20050;-70
2023/08/17 02:16:11;;;;;;;5.78;2.47;;;;;;;;;;5024154;28;20084;-70
2023/08/17 02:18:38;;;;;;;4.03;2.33;;;;;;;;;;5022084;28;20056;-70
2023/08/17 02:21:05;;;;;;;4.85;2.50;;;;;;;;;;5029815;28;20057;-70
2023/08/17 02:23:33;;;;;;;4.65;2.10;;;;;;;;;;5029526;28;20053;-70
2023/08/17 02:26:00;;;;;;;3.83;2.45;;;;;;;;;;5029001;28;20120;-71
2023/08/17 02:28:27;;;;;;;5.63;1.92;;;;;;;;;;5030280;28;20493;-70
2023/08/17 02:30:56;;;;;;;4.43;1.60;;;;;;;;;;5030812;28;20505;-70
2023/08/17 02:33:25;;;;;;;2.90;1.80;;;;;;;;;;5029242;28;20051;-70
2023/08/17 02:35:52;;;;;;;5.03;1.90;;;;;;;;;;5027599;28;20077;-70
2023/08/17 02:38:20;;;;;;;5.72;1.80;;;;;;;;;;5028998;28;20056;-70
2023/08/17 02:40:47;;;;;;;3.40;1.67;;;;;;;;;;5021554;28;20397;-70
2023/08/17 02:43:14;;;;;;;4.03;1.70;;;;;;;;;;5028148;28;20046;-70
2023/08/17 02:45:41;;;;;;;3.22;2.00;;;;;;;;;;5030972;28;20049;-70
2023/08/17 02:48:09;;;;;;;4.32;1.85;;;;;;;;;;5027389;28;20054;-70
2023/08/17 02:50:37;;;;;;;2.58;1.63;;;;;;;;;;5020353;28;20086;-70
2023/08/17 02:53:05;;;;;;;4.88;1.95;;;;;;;;;;5027317;28;20050;-70
2023/08/17 02:55:32;;;;;;;3.13;1.73;;;;;;;;;;5030968;28;20084;-69
2023/08/17 02:57:59;;;;;;;2.20;1.42;;;;;;;;;;5029750;28;20128;-70
2023/08/17 03:00:26;;;;;;;3.58;1.90;;;;;;;;;;5029005;28;20052;-70
2023/08/17 03:02:54;;;;;;;3.80;2.13;;;;;;;;;;5030608;28;20551;-70
2023/08/17 03:05:21;;;;;;;6.90;2.13;;;;;;;;;;5031377;28;20120;-70
2023/08/17 03:07:50;;;;;;;3.88;2.15;;;;;;;;;;5030619;28;20408;-70
2023/08/17 03:10:18;;;;;;;3.95;2.08;;;;;;;;;;5029841;28;20045;-70
2023/08/17 03:12:45;;;;;;;4.30;2.20;;;;;;;;;;5025336;28;20050;-70
2023/08/17 03:15:12;;;;;;;3.13;2.00;;;;;;;;;;5028792;28;20053;-70
2023/08/17 03:17:40;;;;;;;6.55;2.60;;;;;;;;;;5029532;28;20049;-70
2023/08/17 03:20:08;;;;;;;4.93;2.40;;;;;;;;;;5026946;28;20050;-70
2023/08/17 03:22:35;;;;;;;7.05;2.78;;;;;;;;;;5028121;28;20050;-70
2023/08/17 03:25:03;;;;;;;6.82;2.65;;;;;;;;;;5029058;28;20053;-70
2023/08/17 03:27:31;;;;;;;4.35;2.92;;;;;;;;;;5031369;28;20397;-70
2023/08/17 03:29:58;;;;;;;4.03;2.53;;;;;;;;;;5026593;28;20049;-70
2023/08/17 03:32:25;;;;;;;4.78;3.00;;;;;;;;;;5027971;28;20049;-70
2023/08/17 03:34:52;;;;;;;4.93;2.92;;;;;;;;;;5026951;28;20096;-70
2023/08/17 03:37:20;;;;;;;7.35;2.72;;;;;;;;;;5030994;28;20499;-70
2023/08/17 03:39:47;;;;;;;7.97;2.70;;;;;;;;;;5029607;28;20041;-70
2023/08/17 03:42:15;;;;;;;7.43;2.83;;;;;;;;;;5030097;28;20049;-69
2023/08/17 03:44:43;;;;;;;4.82;2.90;;;;;;;;;;5030262;28;20046;-70
2023/08/17 03:47:10;;;;;;;3.85;2.50;;;;;;;;;;5031203;28;20041;-70
2023/08/17 03:49:37;;;;;;;5.88;2.88;;;;;;;;;;5030219;28;20056;-70
2023/08/17 03:52:05;;;;;;;4.13;2.40;;;;;;;;;;5030082;28;20045;-70
2023/08/17 03:54:32;;;;;;;5.38;2.50;;;;;;;;;;5030462;28;20643;-70
2023/08/17 03:56:59;;;;;;;4.90;2.25;;;;;;;;;;5029990;28;20057;-70
2023/08/17 03:59:28;;;;;;;7.15;2.47;;;;;;;;;;5027455;28;20041;-70
2023/08/17 04:01:55;;;;;;;3.25;2.30;;;;;;;;;;5025248;28;20045;-70
2023/08/17 04:04:22;;;;;;;3.40;2.42;;;;;;;;;;5028505;28;20053;-70
2023/08/17 04:06:50;;;;;;;3.72;2.10;;;;;;;;;;5022419;28;20114;-70
2023/08/17 04:09:17;;;;;;;3.55;1.80;;;;;;;;;;5030029;28;20053;-70
2023/08/17 04:11:44;;;;;;;6.40;2.70;;;;;;;;;;5026484;28;20397;-70
2023/08/17 04:14:12;;;;;;;6.15;2.33;;;;;;;;;;5026627;28;20042;-70
2023/08/17 04:16:40;;;;;;;7.18;2.50;;;;;;;;;;5025604;28;20057;-70
2023/08/17 04:19:08;;;;;;;5.25;2.40;;;;;;;;;;5027454;28;20049;-70
2023/08/17 04:21:35;;;;;;;4.25;2.50;;;;;;;;;;5027903;28;20504;-70
2023/08/17 04:24:02;;;;;;;4.28;2.30;;;;;;;;;;5029200;28;20046;-70
2023/08/17 04:26:29;;;;;;;3.97;2.42;;;;;;;;;;5023780;28;20045;-70
2023/08/17 04:28:56;;;;;;;3.03;2.40;;;;;;;;;;5029275;28;20421;-70
2023/08/17 04:31:24;;;;;;;3.63;2.45;;;;;;;;;;5020358;28;20065;-70
2023/08/17 04:33:53;;;;;;;5.05;2.42;;;;;;;;;;5023033;28;20056;-70
2023/08/17 04:36:20;;;;;;;6.47;2.22;;;;;;;;;;5023688;28;20404;-70
2023/08/17 04:38:47;;;;;;;3.50;2.20;;;;;;;;;;5024096;28;20045;-70
2023/08/17 04:41:16;;;;;;;7.03;2.47;;;;;;;;;;5029897;28;20444;-70
2023/08/17 04:43:46;;;;;;;5.28;2.40;;;;;;;;;;5024017;28;20110;-70
2023/08/17 04:46:14;;;;;;;5.70;2.17;;;;;;;;;;5029076;28;20049;-70
2023/08/17 04:48:41;;;;;;;3.88;1.83;;;;;;;;;;5027186;28;20060;-70
2023/08/17 04:51:09;;;;;;;6.68;1.80;;;;;;;;;;5029296;28;20045;-70
2023/08/17 04:53:37;;;;;;;4.85;1.88;;;;;;;;;;5028248;28;20050;-70
2023/08/17 04:56:04;;;;;;;4.47;1.73;;;;;;;;;;5028970;28;20046;-70
2023/08/17 04:58:32;;;;;;;5.13;1.90;;;;;;;;;;5030042;28;20057;-70
2023/08/17 05:01:00;;;;;;;3.20;1.63;;;;;;;;;;5027760;28;20045;-70
2023/08/17 05:03:27;;;;;;;3.60;1.85;;;;;;;;;;5027329;28;20057;-70
2023/08/17 05:05:54;;;;;;;2.92;1.85;;;;;;;;;;5027024;28;20061;-70
2023/08/17 05:08:23;;;;;;;5.78;1.75;;;;;;;;;;5027203;28;20041;-70
2023/08/17 05:10:50;;;;;;;2.83;1.60;;;;;;;;;;5027205;28;20056;-70
2023/08/17 05:13:17;;;;;;;2.15;1.50;;;;;;;;;;5026816;28;20081;-70
2023/08/17 05:15:45;;;;;;;6.07;2.00;;;;;;;;;;5028473;28;20471;-70
2023/08/17 05:18:12;;;;;;;2.38;1.55;;;;;;;;;;5026012;28;20053;-70
2023/08/17 05:20:39;;;;;;;5.28;1.35;;;;;;;;;;5028027;28;20507;-70
2023/08/17 05:23:07;;;;;;;2.67;1.48;;;;;;;;;;5027556;28;20045;-70
2023/08/17 05:25:36;;;;;;;4.93;1.63;;;;;;;;;;5027002;28;20177;-70
2023/08/17 05:28:03;;;;;;;5.80;1.35;;;;;;;;;;5025044;28;20489;-70
2023/08/17 05:30:31;;;;;;;3.70;1.35;;;;;;;;;;5027392;28;20057;-70
2023/08/17 05:32:58;;;;;;;2.97;1.40;;;;;;;;;;5030348;28;20057;-70
2023/08/17 05:35:25;;;;;;;3.45;1.30;;;;;;;;;;5032250;28;20088;-70
2023/08/17 05:37:52;;;;;;;6.78;1.40;;;;;;;;;;5031798;28;20128;-70
2023/08/17 05:40:20;;;;;;;5.68;1.33;;;;;;;;;;5028952;28;20501;-70
2023/08/17 05:42:48;;;;;;;4.90;1.30;;;;;;;;;;5027405;28;20054;-70
2023/08/17 05:45:15;;;;;;;4.35;1.20;;;;;;;;;;5031471;28;20049;-71
2023/08/17 05:47:43;;;;;;;3.28;1.65;;;;;;;;;;5030954;28;20054;-70
2023/08/17 05:50:10;;;;;;;3.70;1.27;;;;;;;;;;5033330;28;20045;-70
2023/08/17 05:52:37;;;;;;;2.75;1.20;;;;;;;;;;5032256;28;20045;-70
2023/08/17 05:55:05;;;;;;;2.70;1.10;;;;;;;;;;5032442;28;20405;-70
2023/08/17 05:57:32;;;;;;;3.65;1.40;;;;;;;;;;5028680;28;20421;-70
2023/08/17 06:00:01;;;;;;;2.10;1.20;;;;;;;;;;5028960;28;20065;-70
2023/08/17 06:02:28;;;;;;;2.95;1.30;;;;;;;;;;5028674;28;20492;-71
2023/08/17 06:04:55;;;;;;;2.58;1.25;;;;;;;;;;5030795;28;20053;-71
2023/08/17 06:07:22;;;;;;;3.17;1.17;;;;;;;;;;5031712;28;20053;-71
2023/08/17 06:09:49;;;;;;;2.08;1.00;;;;;;;;;;5029430;28;20052;-71
2023/08/17 06:12:18;;;;;;;3.30;1.00;;;;;;;;;;5030618;28;20492;-71
2023/08/17 06:14:46;;;;;;;1.92;0.90;;;;;;;;;;5024980;28;20056;-69
2023/08/17 06:17:14;;;;;;;1.55;0.90;;;;;;;;;;5028406;28;20052;-69
2023/08/17 06:19:41;;;;;;;2.28;1.00;;;;;;;;;;5025835;28;20133;-70
2023/08/17 06:22:09;;;;;;;2.95;0.90;;;;;;;;;;5025544;28;20080;-70
2023/08/17 06:24:36;;;;;;;2.20;0.80;;;;;;;;;;5028163;28;20061;-69
2023/08/17 06:27:03;;;;;;;1.65;0.90;;;;;;;;;;5029271;28;20045;-69
2023/08/17 06:29:30;;;;;;;2.35;1.10;;;;;;;;;;5029010;28;20061;-69
2023/08/17 06:31:58;;;;;;;2.33;1.02;;;;;;;;;;5027358;28;20041;-69
2023/08/17 06:34:26;;;;;;;3.83;1.00;;;;;;;;;;5031014;28;20053;-69
2023/08/17 06:37:00;;;;;;;4.78;0.73;;;;;;;;;;5026009;28;20408;-69
2023/08/17 06:39:27;;;;;;;3.00;0.70;;;;;;;;;;5024538;28;20064;-70
2023/08/17 06:41:55;;;;;;;3.22;0.70;;;;;;;;;;5026879;28;20038;-70
2023/08/17 06:44:22;;;;;;;4.55;0.88;;;;;;;;;;5029633;28;20053;-70
2023/08/17 06:46:49;;;;;;;3.30;1.00;;;;;;;;;;5026844;28;20052;-70
2023/08/17 06:49:17;;;;;;;1.60;0.60;;;;;;;;;;5024090;28;20531;-69
2023/08/17 06:51:45;;;;;;;2.47;0.70;;;;;;;;;;5023104;28;20050;-69
2023/08/17 06:54:12;;;;;;;1.80;0.60;;;;;;;;;;5030944;28;20047;-69
2023/08/17 06:56:40;;;;;;;1.00;0.70;;;;;;;;;;5029026;28;20045;-69
2023/08/17 06:59:07;;;;;;;3.28;0.80;;;;;;;;;;5027533;28;20412;-69
2023/08/17 07:01:35;;;;;;;1.23;0.70;;;;;;;;;;5025067;28;20054;-70
2023/08/17 07:04:02;;;;;;;1.40;0.68;;;;;;;;;;5017248;28;20046;-70
2023/08/17 07:06:29;;;;;;;5.35;0.90;;;;;;;;;;5023013;28;20072;-70
2023/08/17 07:08:58;;;;;;;0.85;0.70;;;;;;;;;;5022707;28;20076;-70
2023/08/17 07:11:26;;;;;;;2.85;0.80;;;;;;;;;;5026635;28;20049;-70
2023/08/17 07:13:53;;;;;;;2.35;0.73;;;;;;;;;;5030163;28;20053;-70
2023/08/17 07:16:20;;;;;;;5.10;0.70;;;;;;;;;;5023655;28;20057;-70
2023/08/17 07:18:48;;;;;;;2.83;0.70;;;;;;;;;;5030391;28;20041;-69
2023/08/17 07:21:15;;;;;;;4.13;0.80;;;;;;;;;;5027287;28;20053;-69
2023/08/17 07:23:47;;;;;;;0.70;0.60;;;;;;;;;;5020084;28;20048;-69
2023/08/17 07:26:15;;;;;;;2.13;0.65;;;;;;;;;;5023239;28;20085;-70
2023/08/17 07:28:43;;;;;;;2.10;0.70;;;;;;;;;;5020487;28;20053;-70
2023/08/17 07:31:10;;;;;;;1.88;0.70;;;;;;;;;;5024098;28;20492;-71
2023/08/17 07:33:37;;;;;;;3.72;0.80;;;;;;;;;;5027929;28;20052;-72
2023/08/17 07:36:04;;;;;;;2.75;0.80;;;;;;;;;;5020823;28;20057;-70
2023/08/17 07:38:32;;;;;;;1.05;0.60;;;;;;;;;;5022863;28;20132;-71
2023/08/17 07:40:59;;;;;;;1.23;0.50;;;;;;;;;;5023590;28;20077;-70
2023/08/17 07:43:28;;;;;;;2.67;0.60;;;;;;;;;;5022216;28;20048;-71
2023/08/17 07:45:55;;;;;;;0.75;0.55;;;;;;;;;;5017859;28;20046;-71
2023/08/17 07:48:22;;;;;;;1.60;0.60;;;;;;;;;;5026120;28;20065;-71
2023/08/17 07:50:51;;;;;;;3.30;0.70;;;;;;;;;;5030484;28;20041;-70
2023/08/17 07:53:18;;;;;;;1.80;0.60;;;;;;;;;;5029327;28;20650;-69
2023/08/17 07:55:45;;;;;;;4.90;0.50;;;;;;;;;;5027760;28;20053;-70
2023/08/17 07:58:13;;;;;;;1.58;0.40;;;;;;;;;;5030890;28;20049;-69
2023/08/17 08:00:41;;;;;;;1.70;0.50;;;;;;;;;;5028565;28;20045;-69
2023/08/17 08:03:08;;;;;;;1.23;0.40;;;;;;;;;;5028668;28;20052;-69
2023/08/17 08:05:36;;;;;;;2.15;0.45;;;;;;;;;;5028648;28;20051;-69
2023/08/17 08:08:03;;;;;;;4.82;0.82;;;;;;;;;;5027804;28;20072;-69
2023/08/17 08:10:30;;;;;;;2.15;0.60;;;;;;;;;;5024979;28;20238;-70
2023/08/17 08:12:57;;;;;;;1.55;0.50;;;;;;;;;;5028737;28;20049;-69
2023/08/17 08:15:25;;;;;;;2.63;0.60;;;;;;;;;;5030370;28;20072;-70
2023/08/17 08:17:53;;;;;;;3.10;0.60;;;;;;;;;;5026520;28;20046;-69
2023/08/17 08:20:22;;;;;;;1.17;0.65;;;;;;;;;;5027985;28;20045;-69
2023/08/17 08:22:49;;;;;;;1.38;0.50;;;;;;;;;;5027868;28;20045;-69
2023/08/17 08:25:16;;;;;;;1.88;0.50;;;;;;;;;;5018483;28;20354;-69
2023/08/17 08:27:43;;;;;;;2.58;0.60;;;;;;;;;;5027414;28;20061;-70
2023/08/17 08:30:11;;;;;;;1.08;0.50;;;;;;;;;;5028410;28;20041;-70
2023/08/17 08:32:38;;;;;;;1.25;0.50;;;;;;;;;;5026305;28;20052;-70
2023/08/17 08:35:07;;;;;;;2.25;0.50;;;;;;;;;;5027027;28;20049;-70
2023/08/17 08:37:34;;;;;;;1.45;0.52;;;;;;;;;;5025348;28;20038;-69
2023/08/17 08:40:02;;;;;;;2.65;0.65;;;;;;;;;;5030297;28;20077;-70
2023/08/17 08:42:29;;;;;;;1.92;0.90;;;;;;;;;;5021048;28;20384;-70
2023/08/17 08:44:56;;;;;;;2.40;0.90;;;;;;;;;;5028539;28;20049;-70
2023/08/17 08:47:24;;;;;;;2.92;0.60;;;;;;;;;;5027046;28;20057;-70
2023/08/17 08:50:01;;;;;;;3.47;0.60;;;;;;;;;;5029532;28;20080;-70
2023/08/17 08:52:34;;;;;;;3.00;0.82;;;;;;;;;;5029063;28;20411;-69
2023/08/17 08:55:04;;;;;;;3.53;0.60;;;;;;;;;;5025829;28;20054;-69
2023/08/17 08:57:31;;;;;;;2.10;0.77;;;;;;;;;;5026849;28;20073;-70
2023/08/17 09:00:00;;;;;;;2.35;0.70;;;;;;;;;;5026734;28;20060;-70
2023/08/17 09:02:28;;;;;;;1.33;0.60;;;;;;;;;;5026262;28;20145;-70
2023/08/17 09:04:55;;;;;;;4.65;0.60;;;;;;;;;;5025715;28;20060;-70
2023/08/17 09:07:23;;;;;;;2.92;0.60;;;;;;;;;;5031782;28;20441;-70
2023/08/17 09:09:52;;;;;;;1.58;0.50;;;;;;;;;;5020126;28;20050;-70
2023/08/17 09:12:20;;;;;;;3.80;0.50;;;;;;;;;;5029033;28;20416;-70
2023/08/17 09:14:47;;;;;;;2.47;0.80;;;;;;;;;;5029354;28;20058;-70
2023/08/17 09:17:14;;;;;;;1.23;0.52;;;;;;;;;;5029357;28;20060;-70
2023/08/17 09:19:42;;;;;;;2.53;0.63;;;;;;;;;;5021987;28;20050;-70
2023/08/17 09:22:09;;;;;;;4.88;0.70;;;;;;;;;;5032009;28;20045;-70
2023/08/17 09:24:36;;;;;;;1.67;0.50;;;;;;;;;;5030801;28;20444;-70
2023/08/17 09:27:05;;;;;;;1.05;0.50;;;;;;;;;;5033408;28;20052;-70
2023/08/17 09:29:36;;;;;;;0.80;0.43;;;;;;;;;;5030129;28;20049;-70
2023/08/17 09:32:06;;;;;;;3.90;0.50;;;;;;;;;;5031644;28;20597;-69
2023/08/17 09:34:34;;;;;;;1.40;0.60;;;;;;;;;;5031186;28;20072;-70
2023/08/17 09:37:04;;;;;;;3.00;0.60;;;;;;;;;;5030655;28;20046;-70
2023/08/17 09:39:31;;;;;;;3.70;0.80;;;;;;;;;;5031157;28;20064;-70
2023/08/17 09:41:59;;;;;;;1.38;0.50;;;;;;;;;;5027916;28;20053;-70
2023/08/17 09:44:27;;;;;;;2.72;0.50;;;;;;;;;;5031050;28;20053;-70
2023/08/17 09:46:57;;;;;;;1.95;0.50;;;;;;;;;;5033441;28;20050;-70
2023/08/17 09:49:25;;;;;;;0.82;0.55;;;;;;;;;;5030110;28;20060;-70
2023/08/17 09:51:53;;;;;;;1.73;0.50;;;;;;;;;;5032399;28;20048;-69
2023/08/17 09:54:24;;;;;;;1.33;0.60;;;;;;;;;;5026607;28;20037;-70
2023/08/17 09:56:52;;;;;;;1.98;0.65;;;;;;;;;;5028665;28;20076;-70
2023/08/17 09:59:19;;;;;;;1.75;0.77;;;;;;;;;;5032794;28;20053;-70
2023/08/17 10:01:49;;;;;;;3.55;0.60;;;;;;;;;;5030970;28;20501;-70
2023/08/17 10:04:18;;;;;;;1.42;0.50;;;;;;;;;;5029525;28;20378;-70
2023/08/17 10:06:46;;;;;;;2.25;0.60;;;;;;;;;;5031202;28;20563;-70
2023/08/17 10:09:14;;;;;;;0.95;0.55;;;;;;;;;;5029537;28;20050;-70
2023/08/17 10:11:42;;;;;;;1.00;0.50;;;;;;;;;;5025462;28;20072;-70
2023/08/17 10:14:14;;;;;;;1.88;0.68;;;;;;;;;;5030822;28;20046;-70
2023/08/17 10:16:44;;;;;;;1.40;0.50;;;;;;;;;;5030051;28;20466;-70
2023/08/17 10:19:19;;;;;;;2.03;0.50;;;;;;;;;;5031192;28;20050;-70
2023/08/17 10:21:49;;;;;;;2.10;0.60;;;;;;;;;;5024581;28;20101;-70
2023/08/17 10:24:17;;;;;;;2.08;0.50;;;;;;;;;;5028552;28;20049;-70
2023/08/17 10:26:44;;;;;;;0.30;0.30;;;;;;;;;;5029307;28;20041;-70
2023/08/17 10:29:12;;;;;;;2.05;0.60;;;;;;;;;;5022077;28;20060;-70
2023/08/17 10:31:39;;;;;;;2.05;0.77;;;;;;;;;;5027183;28;20103;-70
2023/08/17 10:34:07;;;;;;;1.67;0.60;;;;;;;;;;5029491;28;20576;-70
2023/08/17 10:36:36;;;;;;;1.67;0.60;;;;;;;;;;5031178;28;20077;-70
2023/08/17 10:39:30;;;;;;;2.15;0.60;;;;;;;;;;5029769;28;20072;-70
2023/08/17 10:41:58;;;;;;;1.63;0.70;;;;;;;;;;5009567;28;20057;-70
2023/08/17 10:44:42;;;;;;;2.45;0.80;;;;;;;;;;5030170;28;20453;-70
2023/08/17 10:47:25;;;;;;;3.25;1.00;;;;;;;;;;5030359;28;20042;-70
2023/08/17 10:49:52;;;;;;;;;;;;;;;;;;5028273;28;20057;-70
2023/08/17 10:52:31;;;;;;;1.92;0.60;;;;;;;;;;5026613;28;19928;-70
2023/08/17 10:54:58;;;;;;;4.03;0.80;;;;;;;;;;5020071;28;20488;-70
2023/08/17 10:57:35;;;;;;;1.30;0.60;;;;;;;;;;5030795;28;20041;-70
2023/08/17 11:00:21;;;;;;;4.20;0.93;;;;;;;;;;5025710;28;20060;-71
2023/08/17 11:02:58;;;;;;;4.25;0.77;;;;;;;;;;5030542;28;20451;-70
2023/08/17 11:05:39;;;;;;;1.50;0.60;;;;;;;;;;5028885;28;20045;-70
2023/08/17 11:08:09;;;;;;;1.98;0.70;;;;;;;;;;5020114;28;20405;-70
2023/08/17 11:10:37;;;;;;;2.33;1.05;;;;;;;;;;5020617;28;20049;-70
2023/08/17 11:13:06;;;;;;;2.58;0.60;;;;;;;;;;5027206;28;20065;-70
2023/08/17 11:15:42;;;;;;;4.80;0.80;;;;;;;;;;5031015;28;20128;-70
2023/08/17 11:18:10;;;;;;;2.88;0.70;;;;;;;;;;5021069;28;20485;-70
2023/08/17 11:20:37;;;;;;;3.20;0.70;;;;;;;;;;5023517;28;20053;-70
2023/08/17 11:23:05;;;;;;;3.65;1.00;;;;;;;;;;5023311;28;20056;-70
2023/08/17 11:25:35;;;;;;;1.98;0.98;;;;;;;;;;5029775;28;20057;-70
2023/08/17 11:28:02;;;;;;;2.20;0.88;;;;;;;;;;5020033;28;20092;-70
2023/08/17 11:30:30;;;;;;;2.38;0.75;;;;;;;;;;5029665;28;20057;-71
2023/08/17 11:32:58;;;;;;;1.95;0.90;;;;;;;;;;5020079;28;20057;-71
2023/08/17 11:35:26;;;;;;;1.88;0.80;;;;;;;;;;5021346;28;20050;-71
2023/08/17 11:37:53;;;;;;;3.28;1.05;;;;;;;;;;5024006;28;20049;-71
2023/08/17 11:40:20;;;;;;;6.15;1.13;;;;;;;;;;5022918;28;20082;-71
2023/08/17 11:42:49;;;;;;;5.90;0.95;;;;;;;;;;5024099;28;20061;-71
2023/08/17 11:45:17;;;;;;;2.90;0.90;;;;;;;;;;5029549;28;20053;-71
2023/08/17 11:47:44;;;;;;;1.10;0.63;;;;;;;;;;5027063;28;20053;-71
2023/08/17 11:50:12;;;;;;;2.65;0.80;;;;;;;;;;5029254;28;20053;-71
2023/08/17 11:52:39;;;;;;;2.63;1.00;;;;;;;;;;5027782;28;20056;-71
2023/08/17 11:55:07;;;;;;;4.93;0.80;;;;;;;;;;5020422;28;20057;-71
2023/08/17 11:57:34;;;;;;;3.88;1.00;;;;;;;;;;5020118;28;20053;-71
2023/08/17 12:00:05;;;;;;;3.45;0.80;;;;;;;;;;5030241;28;20053;-71
2023/08/17 12:02:37;;;;;;;2.72;1.00;;;;;;;;;;5020797;28;20146;-71
2023/08/17 12:05:06;;;;;;;2.95;1.38;;;;;;;;;;5027674;28;20127;-71
2023/08/17 12:07:33;;;;;;;3.88;0.90;;;;;;;;;;5028321;28;20085;-71
2023/08/17 12:10:01;;;;;;;2.47;1.00;;;;;;;;;;5029509;28;20045;-71
2023/08/17 12:12:29;;;;;;;4.38;0.95;;;;;;;;;;5027067;28;20524;-71
2023/08/17 12:14:56;;;;;;;4.00;1.00;;;;;;;;;;5021986;28;20045;-71
2023/08/17 12:17:25;;;;;;;4.95;0.90;;;;;;;;;;5025976;28;20048;-71
2023/08/17 12:19:55;;;;;;;2.25;0.95;;;;;;;;;;5029120;28;20048;-71
2023/08/17 12:22:25;;;;;;;2.25;0.73;;;;;;;;;;5024947;28;20065;-71
2023/08/17 12:24:53;;;;;;;2.85;0.80;;;;;;;;;;5027345;28;20265;-71
2023/08/17 12:27:20;;;;;;;1.80;0.90;;;;;;;;;;5027207;28;20469;-71
2023/08/17 12:29:48;;;;;;;1.35;0.88;;;;;;;;;;5017675;28;20049;-71
2023/08/17 12:32:16;;;;;;;4.60;1.10;;;;;;;;;;5027004;28;20484;-72
2023/08/17 12:34:44;;;;;;;3.63;1.13;;;;;;;;;;5023870;28;20045;-68
2023/08/17 12:37:12;;;;;;;2.22;0.80;;;;;;;;;;5026109;28;20049;-71
2023/08/17 12:39:39;;;;;;;3.28;0.90;;;;;;;;;;5022526;28;20053;-71
2023/08/17 12:42:07;;;;;;;8.15;1.50;;;;;;;;;;5025278;28;20045;-71
2023/08/17 12:44:34;;;;;;;2.58;1.20;;;;;;;;;;5028476;28;20045;-71
2023/08/17 12:47:01;;;;;;;3.22;0.95;;;;;;;;;;5025227;28;20091;-70
2023/08/17 12:49:29;;;;;;;7.80;1.33;;;;;;;;;;5026890;28;20068;-71
2023/08/17 12:51:57;;;;;;;3.22;0.93;;;;;;;;;;5027688;28;20053;-70
2023/08/17 12:54:25;;;;;;;5.03;0.80;;;;;;;;;;5026208;28;20477;-70
2023/08/17 12:56:52;;;;;;;3.05;0.93;;;;;;;;;;5027633;28;20049;-66
2023/08/17 12:59:19;;;;;;;5.78;1.10;;;;;;;;;;5026383;28;20049;-66
2023/08/17 13:01:46;;;;;;;4.40;1.10;;;;;;;;;;5023963;28;20052;-66
2023/08/17 13:04:13;;;;;;;3.28;0.95;;;;;;;;;;5025424;28;20460;-66
2023/08/17 13:06:41;;;;;;;4.95;1.00;;;;;;;;;;5025442;28;20544;-66
2023/08/17 13:09:10;;;;;;;4.15;0.93;;;;;;;;;;5022973;28;20059;-66
2023/08/17 13:11:37;;;;;;;2.13;0.90;;;;;;;;;;5020429;28;20061;-66
2023/08/17 13:14:04;;;;;;;2.67;1.02;;;;;;;;;;5028139;28;20068;-66
2023/08/17 13:16:32;;;;;;;1.85;1.13;;;;;;;;;;5024822;28;20063;-66
2023/08/17 13:18:59;;;;;;;1.30;0.80;;;;;;;;;;5021039;28;20569;-66
2023/08/17 13:21:26;;;;;;;3.97;1.00;;;;;;;;;;5023149;28;20064;-66
2023/08/17 13:23:53;;;;;;;3.05;0.90;;;;;;;;;;5017948;28;20050;-66
2023/08/17 13:26:22;;;;;;;3.67;0.90;;;;;;;;;;5020536;28;20049;-66
2023/08/17 13:28:50;;;;;;;1.58;0.80;;;;;;;;;;5017218;28;20057;-66
2023/08/17 13:31:17;;;;;;;6.50;1.30;;;;;;;;;;5019151;28;20401;-67
2023/08/17 13:33:44;;;;;;;5.20;0.90;;;;;;;;;;5021325;28;20049;-66
2023/08/17 13:36:12;;;;;;;4.65;1.10;;;;;;;;;;5025083;28;20055;-66
2023/08/17 13:38:39;;;;;;;5.55;1.20;;;;;;;;;;5022694;28;20046;-66
2023/08/17 13:41:07;;;;;;;2.20;0.98;;;;;;;;;;5021745;28;20049;-66
2023/08/17 13:43:35;;;;;;;2.33;0.90;;;;;;;;;;5023960;28;20049;-66
2023/08/17 13:46:03;;;;;;;2.15;1.13;;;;;;;;;;5029126;28;20053;-66
2023/08/17 13:48:30;;;;;;;3.47;1.15;;;;;;;;;;5026108;28;20061;-66
2023/08/17 13:50:57;;;;;;;2.17;1.00;;;;;;;;;;5025175;28;20089;-66
2023/08/17 13:53:25;;;;;;;8.27;1.00;;;;;;;;;;5026258;28;20052;-66
2023/08/17 13:55:52;;;;;;;5.53;1.10;;;;;;;;;;5027566;28;20042;-66
2023/08/17 13:58:19;;;;;;;3.78;1.08;;;;;;;;;;5029935;28;20053;-66
2023/08/17 14:00:48;;;;;;;2.50;1.13;;;;;;;;;;5030462;28;20098;-66
2023/08/17 14:03:15;;;;;;;2.22;1.00;;;;;;;;;;5026312;28;20153;-66
2023/08/17 14:05:44;;;;;;;5.47;1.20;;;;;;;;;;5031012;28;20053;-65
2023/08/17 14:08:11;;;;;;;2.67;0.90;;;;;;;;;;5030141;28;20080;-65
2023/08/17 14:10:39;;;;;;;2.30;0.88;;;;;;;;;;5028675;28;20057;-66
2023/08/17 14:13:06;;;;;;;5.82;1.08;;;;;;;;;;5022529;28;20489;-68
2023/08/17 14:15:33;;;;;;;3.03;1.00;;;;;;;;;;5028662;28;20067;-66
2023/08/17 14:18:03;;;;;;;2.92;0.80;;;;;;;;;;5025330;28;20481;-66
2023/08/17 14:20:30;;;;;;;1.85;0.90;;;;;;;;;;5032104;28;20103;-66
2023/08/17 14:22:58;;;;;;;5.40;1.02;;;;;;;;;;5026426;28;20057;-66
2023/08/17 14:25:25;;;;;;;3.10;0.98;;;;;;;;;;5026558;28;20508;-66
2023/08/17 14:27:53;;;;;;;6.07;1.00;;;;;;;;;;5026549;28;20049;-66
2023/08/17 14:30:21;;;;;;;6.88;1.13;;;;;;;;;;5026412;28;20048;-66
2023/08/17 14:32:48;;;;;;;7.25;1.40;;;;;;;;;;5028678;28;20045;-66
2023/08/17 14:35:16;;;;;;;6.30;1.08;;;;;;;;;;5027500;28;20041;-66
2023/08/17 14:37:44;;;;;;;6.07;0.90;;;;;;;;;;5027431;28;20508;-66
2023/08/17 14:40:11;;;;;;;3.00;0.98;;;;;;;;;;5028210;28;20045;-66
2023/08/17 14:42:38;;;;;;;4.68;0.90;;;;;;;;;;5022550;28;20378;-66
2023/08/17 14:45:06;;;;;;;7.57;1.02;;;;;;;;;;5019460;28;20551;-66
2023/08/17 14:47:33;;;;;;;10.23;1.20;;;;;;;;;;5018006;28;20046;-66